This is the latest recevied weather packets stored in our database for station/object KE4ODN. If no packets are shown the sender has not sent any weather packets the latest 10 day(s).
| Time | Temp. | Humidity | Pressure | Rain* | Wind** | Luminosity | Snow |
|---|---|---|---|---|---|---|---|
| 1777881843 | 7.78° C | 93% | 1016.9 hPa | 0 mm | - | 0 W/m² | - |
| 1777880403 | 7.78° C | 92% | 1017.1 hPa | 0 mm | - | 0 W/m² | - |
| 1777877763 | 8.33° C | 92% | 1017.2 hPa | 0 mm | - | 0 W/m² | - |
| 1777875363 | 8.89° C | 92% | 1017.5 hPa | 0 mm | - | 0 W/m² | - |
| 1777874163 | 8.89° C | 92% | 1017.8 hPa | 0 mm | - | 0 W/m² | - |
| 1777873944 | 8.89° C | 92% | 1017.8 hPa | 0 mm | - | 0 W/m² | - |
| 1777872483 | 9.44° C | 92% | 1018 hPa | 0 mm | - | 0 W/m² | - |
| 1777870323 | 10° C | 92% | 1018 hPa | 0 mm | - | 0 W/m² | - |
| 1777868883 | 10° C | 92% | 1018.2 hPa | 0 mm | - | 0 W/m² | - |
| 1777868163 | 10° C | 91% | 1018.1 hPa | 0 mm | - | 0 W/m² | - |
| 1777867683 | 10.56° C | 91% | 1018.1 hPa | 0 mm | - | 0 W/m² | - |
| 1777866483 | 10.56° C | 91% | 1018.3 hPa | 0 mm | - | 0 W/m² | - |
| 1777864323 | 11.11° C | 91% | 1018.4 hPa | 0 mm | - | 0 W/m² | - |
| 1777863363 | 11.11° C | 91% | 1018.3 hPa | 0 mm | - | 0 W/m² | - |
| 1777862184 | 11.67° C | 89% | 1018.3 hPa | 0 mm | - | 0 W/m² | - |
| 1777860243 | 12.78° C | 86% | 1017.9 hPa | 0 mm | - | 0 W/m² | - |
| 1777860003 | 12.78° C | 86% | 1017.8 hPa | 0 mm | - | 0 W/m² | - |
| 1777859763 | 12.78° C | 85% | 1017.9 hPa | 0 mm | - | 0 W/m² | - |
| 1777858323 | 13.33° C | 82% | 1017.6 hPa | 0 mm | - | 0 W/m² | - |
| 1777858083 | 13.33° C | 81% | 1017.5 hPa | 0 mm | - | 0 W/m² | - |
| 1777856643 | 14.44° C | 77% | 1017.4 hPa | 0 mm | - | 0 W/m² | - |
| 1777856403 | 15° C | 76% | 1017.4 hPa | 0 mm | - | 0 W/m² | - |
| 1777855684 | 15.56° C | 74% | 1017.3 hPa | 0 mm | - | 0 W/m² | - |
| 1777852324 | 18.33° C | 57% | 1017 hPa | 0 mm | - | 14 W/m² | - |
| 1777850185 | 20° C | 47% | 1016.9 hPa | 0 mm | - | 26 W/m² | - |
* Rain latest hour (hover to see other rain measurements)
** Current wind speed in m/s (hover to see current wind gust speed)